sensor_id;sensor_type;location;lat;lon;timestamp;P1;durP1;ratioP1;P2;durP2;ratioP2
434;SDS011;204;48.942;9.256;2022-08-19T00:01:46;13.60;;;12.87;;
434;SDS011;204;48.942;9.256;2022-08-19T00:04:13;14.13;;;13.43;;
434;SDS011;204;48.942;9.256;2022-08-19T00:06:41;14.13;;;13.43;;
434;SDS011;204;48.942;9.256;2022-08-19T00:09:10;13.67;;;12.97;;
434;SDS011;204;48.942;9.256;2022-08-19T00:11:37;15.43;;;14.63;;
434;SDS011;204;48.942;9.256;2022-08-19T00:14:04;14.00;;;13.30;;
434;SDS011;204;48.942;9.256;2022-08-19T00:16:31;15.17;;;13.40;;
434;SDS011;204;48.942;9.256;2022-08-19T00:18:57;14.10;;;13.40;;
434;SDS011;204;48.942;9.256;2022-08-19T00:21:24;14.83;;;14.07;;
434;SDS011;204;48.942;9.256;2022-08-19T00:23:51;14.67;;;13.93;;
434;SDS011;204;48.942;9.256;2022-08-19T00:26:18;14.53;;;13.83;;
434;SDS011;204;48.942;9.256;2022-08-19T00:28:44;14.83;;;14.03;;
434;SDS011;204;48.942;9.256;2022-08-19T00:31:10;14.27;;;13.57;;
434;SDS011;204;48.942;9.256;2022-08-19T00:33:35;16.10;;;15.30;;
434;SDS011;204;48.942;9.256;2022-08-19T00:36:03;16.03;;;15.23;;
434;SDS011;204;48.942;9.256;2022-08-19T00:38:31;15.77;;;14.97;;
434;SDS011;204;48.942;9.256;2022-08-19T00:40:57;16.83;;;15.97;;
434;SDS011;204;48.942;9.256;2022-08-19T00:43:24;15.20;;;14.40;;
434;SDS011;204;48.942;9.256;2022-08-19T00:45:51;17.17;;;16.00;;
434;SDS011;204;48.942;9.256;2022-08-19T00:48:17;16.03;;;15.23;;
434;SDS011;204;48.942;9.256;2022-08-19T00:50:44;15.90;;;15.10;;
434;SDS011;204;48.942;9.256;2022-08-19T00:53:12;17.57;;;16.30;;
434;SDS011;204;48.942;9.256;2022-08-19T00:55:42;16.00;;;15.20;;
434;SDS011;204;48.942;9.256;2022-08-19T00:58:12;16.77;;;15.93;;
434;SDS011;204;48.942;9.256;2022-08-19T01:00:40;16.03;;;15.23;;
434;SDS011;204;48.942;9.256;2022-08-19T01:03:07;16.50;;;15.70;;
434;SDS011;204;48.942;9.256;2022-08-19T01:05:34;16.00;;;15.20;;
434;SDS011;204;48.942;9.256;2022-08-19T01:08:01;16.27;;;15.47;;
434;SDS011;204;48.942;9.256;2022-08-19T01:10:30;16.50;;;15.70;;
434;SDS011;204;48.942;9.256;2022-08-19T01:13:00;16.23;;;15.43;;
434;SDS011;204;48.942;9.256;2022-08-19T01:15:31;14.33;;;13.63;;
434;SDS011;204;48.942;9.256;2022-08-19T01:18:04;15.30;;;14.50;;
434;SDS011;204;48.942;9.256;2022-08-19T01:20:33;15.93;;;15.13;;
434;SDS011;204;48.942;9.256;2022-08-19T01:22:59;16.30;;;15.50;;
434;SDS011;204;48.942;9.256;2022-08-19T01:25:33;16.17;;;15.37;;
434;SDS011;204;48.942;9.256;2022-08-19T01:28:15;15.33;;;14.53;;
434;SDS011;204;48.942;9.256;2022-08-19T01:30:46;16.50;;;15.70;;
434;SDS011;204;48.942;9.256;2022-08-19T01:33:13;17.47;;;16.57;;
434;SDS011;204;48.942;9.256;2022-08-19T01:35:39;15.87;;;15.07;;
434;SDS011;204;48.942;9.256;2022-08-19T01:38:06;16.57;;;15.77;;
434;SDS011;204;48.942;9.256;2022-08-19T01:40:35;16.83;;;15.97;;
434;SDS011;204;48.942;9.256;2022-08-19T01:43:04;16.97;;;16.10;;
434;SDS011;204;48.942;9.256;2022-08-19T01:45:31;17.00;;;16.10;;
434;SDS011;204;48.942;9.256;2022-08-19T01:47:58;15.77;;;14.97;;
434;SDS011;204;48.942;9.256;2022-08-19T01:50:24;16.40;;;15.60;;
434;SDS011;204;48.942;9.256;2022-08-19T01:52:50;17.10;;;16.20;;
434;SDS011;204;48.942;9.256;2022-08-19T01:55:18;18.20;;;17.30;;
434;SDS011;204;48.942;9.256;2022-08-19T01:57:47;17.93;;;17.03;;
434;SDS011;204;48.942;9.256;2022-08-19T02:00:17;17.67;;;16.77;;
434;SDS011;204;48.942;9.256;2022-08-19T02:02:44;18.00;;;17.10;;
434;SDS011;204;48.942;9.256;2022-08-19T02:05:10;17.73;;;16.83;;
434;SDS011;204;48.942;9.256;2022-08-19T02:07:36;17.80;;;16.90;;
434;SDS011;204;48.942;9.256;2022-08-19T02:10:03;18.20;;;16.23;;
434;SDS011;204;48.942;9.256;2022-08-19T02:12:32;17.70;;;16.00;;
434;SDS011;204;48.942;9.256;2022-08-19T02:14:58;18.10;;;17.20;;
434;SDS011;204;48.942;9.256;2022-08-19T02:17:24;16.47;;;15.67;;
434;SDS011;204;48.942;9.256;2022-08-19T02:19:49;17.17;;;16.27;;
434;SDS011;204;48.942;9.256;2022-08-19T02:22:15;18.03;;;17.13;;
434;SDS011;204;48.942;9.256;2022-08-19T02:24:40;17.57;;;16.67;;
434;SDS011;204;48.942;9.256;2022-08-19T02:27:06;17.90;;;17.00;;
434;SDS011;204;48.942;9.256;2022-08-19T02:29:32;18.83;;;17.90;;
434;SDS011;204;48.942;9.256;2022-08-19T02:31:57;17.50;;;16.60;;
434;SDS011;204;48.942;9.256;2022-08-19T02:34:23;16.50;;;15.70;;
434;SDS011;204;48.942;9.256;2022-08-19T02:36:50;18.83;;;17.90;;
434;SDS011;204;48.942;9.256;2022-08-19T02:39:16;18.67;;;17.77;;
434;SDS011;204;48.942;9.256;2022-08-19T02:41:41;17.97;;;17.07;;
434;SDS011;204;48.942;9.256;2022-08-19T02:44:07;17.87;;;16.97;;
434;SDS011;204;48.942;9.256;2022-08-19T02:46:33;19.13;;;18.13;;
434;SDS011;204;48.942;9.256;2022-08-19T02:49:03;19.00;;;18.03;;
434;SDS011;204;48.942;9.256;2022-08-19T02:51:35;16.70;;;15.87;;
434;SDS011;204;48.942;9.256;2022-08-19T02:54:03;19.27;;;18.27;;
434;SDS011;204;48.942;9.256;2022-08-19T02:56:30;19.20;;;18.20;;
434;SDS011;204;48.942;9.256;2022-08-19T02:58:56;19.37;;;18.37;;
434;SDS011;204;48.942;9.256;2022-08-19T03:01:25;18.87;;;17.93;;
434;SDS011;204;48.942;9.256;2022-08-19T03:03:53;19.67;;;18.67;;
434;SDS011;204;48.942;9.256;2022-08-19T03:06:20;18.40;;;17.50;;
434;SDS011;204;48.942;9.256;2022-08-19T03:08:47;19.87;;;18.70;;
434;SDS011;204;48.942;9.256;2022-08-19T03:11:15;18.70;;;17.30;;
434;SDS011;204;48.942;9.256;2022-08-19T03:13:43;17.60;;;16.70;;
434;SDS011;204;48.942;9.256;2022-08-19T03:16:09;19.37;;;18.37;;
434;SDS011;204;48.942;9.256;2022-08-19T03:18:36;20.33;;;19.33;;
434;SDS011;204;48.942;9.256;2022-08-19T03:21:01;21.07;;;20.00;;
434;SDS011;204;48.942;9.256;2022-08-19T03:23:27;21.47;;;20.37;;
434;SDS011;204;48.942;9.256;2022-08-19T03:25:53;18.37;;;17.47;;
434;SDS011;204;48.942;9.256;2022-08-19T03:28:19;21.37;;;20.27;;
434;SDS011;204;48.942;9.256;2022-08-19T03:30:56;20.20;;;19.20;;
434;SDS011;204;48.942;9.256;2022-08-19T03:33:27;19.33;;;18.00;;
434;SDS011;204;48.942;9.256;2022-08-19T03:36:04;21.27;;;20.17;;
434;SDS011;204;48.942;9.256;2022-08-19T03:38:30;20.40;;;19.40;;
434;SDS011;204;48.942;9.256;2022-08-19T03:40:57;22.10;;;19.20;;
434;SDS011;204;48.942;9.256;2022-08-19T03:43:23;21.03;;;18.60;;
434;SDS011;204;48.942;9.256;2022-08-19T03:45:49;20.33;;;19.33;;
434;SDS011;204;48.942;9.256;2022-08-19T03:48:26;19.70;;;18.70;;
434;SDS011;204;48.942;9.256;2022-08-19T03:50:51;20.23;;;18.80;;
434;SDS011;204;48.942;9.256;2022-08-19T03:53:17;20.87;;;19.83;;
434;SDS011;204;48.942;9.256;2022-08-19T03:55:42;25.53;;;21.37;;
434;SDS011;204;48.942;9.256;2022-08-19T03:58:08;25.30;;;24.03;;
434;SDS011;204;48.942;9.256;2022-08-19T04:00:35;27.57;;;23.43;;
434;SDS011;204;48.942;9.256;2022-08-19T04:03:01;24.47;;;23.27;;
434;SDS011;204;48.942;9.256;2022-08-19T04:05:28;24.37;;;23.17;;
434;SDS011;204;48.942;9.256;2022-08-19T04:07:53;26.27;;;24.97;;
434;SDS011;204;48.942;9.256;2022-08-19T04:10:23;25.17;;;21.60;;
434;SDS011;204;48.942;9.256;2022-08-19T04:12:49;23.30;;;22.10;;
434;SDS011;204;48.942;9.256;2022-08-19T04:15:15;24.53;;;23.37;;
434;SDS011;204;48.942;9.256;2022-08-19T04:17:41;25.67;;;24.37;;
434;SDS011;204;48.942;9.256;2022-08-19T04:20:07;25.87;;;24.57;;
434;SDS011;204;48.942;9.256;2022-08-19T04:22:32;26.10;;;24.80;;
434;SDS011;204;48.942;9.256;2022-08-19T04:24:58;25.37;;;24.10;;
434;SDS011;204;48.942;9.256;2022-08-19T04:27:23;26.00;;;23.47;;
434;SDS011;204;48.942;9.256;2022-08-19T04:29:49;25.17;;;22.93;;
434;SDS011;204;48.942;9.256;2022-08-19T04:32:15;24.97;;;23.73;;
434;SDS011;204;48.942;9.256;2022-08-19T04:34:40;25.00;;;23.80;;
434;SDS011;204;48.942;9.256;2022-08-19T04:37:07;25.33;;;24.00;;
434;SDS011;204;48.942;9.256;2022-08-19T04:39:37;24.40;;;23.20;;
434;SDS011;204;48.942;9.256;2022-08-19T04:42:22;24.73;;;23.53;;
434;SDS011;204;48.942;9.256;2022-08-19T04:45:07;26.20;;;24.90;;
434;SDS011;204;48.942;9.256;2022-08-19T04:47:39;24.33;;;23.13;;
434;SDS011;204;48.942;9.256;2022-08-19T04:50:07;25.37;;;24.10;;
434;SDS011;204;48.942;9.256;2022-08-19T04:52:34;26.10;;;24.80;;
434;SDS011;204;48.942;9.256;2022-08-19T04:54:59;25.03;;;23.80;;
434;SDS011;204;48.942;9.256;2022-08-19T04:57:25;26.93;;;25.70;;
434;SDS011;204;48.942;9.256;2022-08-19T04:59:54;26.07;;;23.90;;
434;SDS011;204;48.942;9.256;2022-08-19T05:02:21;25.37;;;24.07;;
434;SDS011;204;48.942;9.256;2022-08-19T05:04:51;27.40;;;26.00;;
434;SDS011;204;48.942;9.256;2022-08-19T05:07:21;25.20;;;23.60;;
434;SDS011;204;48.942;9.256;2022-08-19T05:09:47;23.60;;;22.40;;
434;SDS011;204;48.942;9.256;2022-08-19T05:12:13;23.60;;;22.40;;
434;SDS011;204;48.942;9.256;2022-08-19T05:14:38;24.13;;;22.93;;
434;SDS011;204;48.942;9.256;2022-08-19T05:17:04;26.97;;;24.67;;
434;SDS011;204;48.942;9.256;2022-08-19T05:19:30;25.73;;;24.27;;
434;SDS011;204;48.942;9.256;2022-08-19T05:22:14;25.30;;;23.90;;
434;SDS011;204;48.942;9.256;2022-08-19T05:24:59;25.40;;;24.10;;
434;SDS011;204;48.942;9.256;2022-08-19T05:27:30;25.07;;;23.77;;
434;SDS011;204;48.942;9.256;2022-08-19T05:29:56;25.80;;;24.50;;
434;SDS011;204;48.942;9.256;2022-08-19T05:32:22;25.57;;;24.27;;
434;SDS011;204;48.942;9.256;2022-08-19T05:34:48;25.73;;;24.43;;
434;SDS011;204;48.942;9.256;2022-08-19T05:37:14;27.97;;;23.63;;
434;SDS011;204;48.942;9.256;2022-08-19T05:39:39;24.53;;;23.33;;
434;SDS011;204;48.942;9.256;2022-08-19T05:42:08;26.07;;;24.77;;
434;SDS011;204;48.942;9.256;2022-08-19T05:44:36;24.57;;;23.17;;
434;SDS011;204;48.942;9.256;2022-08-19T05:47:04;24.13;;;22.93;;
434;SDS011;204;48.942;9.256;2022-08-19T05:49:33;25.67;;;24.37;;
434;SDS011;204;48.942;9.256;2022-08-19T05:52:02;23.33;;;22.17;;
434;SDS011;204;48.942;9.256;2022-08-19T05:54:29;22.90;;;21.50;;
434;SDS011;204;48.942;9.256;2022-08-19T05:56:55;24.40;;;23.20;;
434;SDS011;204;48.942;9.256;2022-08-19T05:59:21;26.13;;;23.90;;
434;SDS011;204;48.942;9.256;2022-08-19T06:01:48;24.73;;;23.53;;
434;SDS011;204;48.942;9.256;2022-08-19T06:04:16;26.10;;;23.87;;
434;SDS011;204;48.942;9.256;2022-08-19T06:06:44;25.90;;;24.60;;
434;SDS011;204;48.942;9.256;2022-08-19T06:09:13;25.80;;;24.50;;
434;SDS011;204;48.942;9.256;2022-08-19T06:11:43;29.00;;;27.60;;
434;SDS011;204;48.942;9.256;2022-08-19T06:14:10;30.37;;;28.87;;
434;SDS011;204;48.942;9.256;2022-08-19T06:16:39;27.53;;;26.13;;
434;SDS011;204;48.942;9.256;2022-08-19T06:19:06;25.93;;;24.63;;
434;SDS011;204;48.942;9.256;2022-08-19T06:21:35;27.03;;;25.73;;
434;SDS011;204;48.942;9.256;2022-08-19T06:24:02;26.97;;;25.37;;
434;SDS011;204;48.942;9.256;2022-08-19T06:26:29;27.63;;;26.23;;
434;SDS011;204;48.942;9.256;2022-08-19T06:28:55;26.30;;;25.00;;
434;SDS011;204;48.942;9.256;2022-08-19T06:31:23;25.00;;;23.80;;
434;SDS011;204;48.942;9.256;2022-08-19T06:33:50;24.73;;;22.90;;
434;SDS011;204;48.942;9.256;2022-08-19T06:38:46;26.13;;;24.83;;
434;SDS011;204;48.942;9.256;2022-08-19T06:41:12;26.43;;;25.13;;
434;SDS011;204;48.942;9.256;2022-08-19T06:43:38;25.70;;;24.40;;
434;SDS011;204;48.942;9.256;2022-08-19T06:46:03;25.60;;;24.30;;
434;SDS011;204;48.942;9.256;2022-08-19T06:48:35;26.77;;;25.47;;
434;SDS011;204;48.942;9.256;2022-08-19T06:51:01;24.60;;;23.40;;
434;SDS011;204;48.942;9.256;2022-08-19T06:53:28;25.30;;;23.53;;
434;SDS011;204;48.942;9.256;2022-08-19T06:55:54;24.10;;;22.90;;
434;SDS011;204;48.942;9.256;2022-08-19T06:58:24;24.70;;;23.30;;
434;SDS011;204;48.942;9.256;2022-08-19T07:00:50;23.40;;;22.20;;
434;SDS011;204;48.942;9.256;2022-08-19T07:03:16;23.90;;;22.70;;
434;SDS011;204;48.942;9.256;2022-08-19T07:05:42;23.93;;;22.73;;
434;SDS011;204;48.942;9.256;2022-08-19T07:08:09;22.80;;;20.40;;
434;SDS011;204;48.942;9.256;2022-08-19T07:10:35;21.37;;;20.27;;
434;SDS011;204;48.942;9.256;2022-08-19T07:13:01;22.13;;;21.03;;
434;SDS011;204;48.942;9.256;2022-08-19T07:15:28;23.40;;;22.20;;
434;SDS011;204;48.942;9.256;2022-08-19T07:17:54;22.07;;;20.97;;
434;SDS011;204;48.942;9.256;2022-08-19T07:20:20;23.60;;;22.40;;
434;SDS011;204;48.942;9.256;2022-08-19T07:22:45;21.37;;;20.27;;
434;SDS011;204;48.942;9.256;2022-08-19T07:25:12;23.70;;;22.50;;
434;SDS011;204;48.942;9.256;2022-08-19T07:27:38;23.43;;;22.23;;
434;SDS011;204;48.942;9.256;2022-08-19T07:30:04;21.57;;;20.47;;
434;SDS011;204;48.942;9.256;2022-08-19T07:32:31;24.27;;;23.07;;
434;SDS011;204;48.942;9.256;2022-08-19T07:34:57;22.30;;;21.20;;
434;SDS011;204;48.942;9.256;2022-08-19T07:37:25;23.60;;;22.40;;
434;SDS011;204;48.942;9.256;2022-08-19T07:39:53;22.80;;;21.70;;
434;SDS011;204;48.942;9.256;2022-08-19T07:42:19;21.80;;;20.70;;
434;SDS011;204;48.942;9.256;2022-08-19T07:44:46;23.90;;;22.70;;
434;SDS011;204;48.942;9.256;2022-08-19T07:47:11;23.03;;;21.90;;
434;SDS011;204;48.942;9.256;2022-08-19T07:49:37;22.20;;;21.10;;
434;SDS011;204;48.942;9.256;2022-08-19T07:52:05;27.30;;;23.37;;
434;SDS011;204;48.942;9.256;2022-08-19T07:54:34;24.07;;;22.17;;
434;SDS011;204;48.942;9.256;2022-08-19T07:57:01;23.27;;;20.93;;
434;SDS011;204;48.942;9.256;2022-08-19T07:59:28;22.93;;;21.80;;
434;SDS011;204;48.942;9.256;2022-08-19T08:01:54;22.27;;;21.17;;
434;SDS011;204;48.942;9.256;2022-08-19T08:04:21;21.77;;;20.67;;
434;SDS011;204;48.942;9.256;2022-08-19T08:07:06;22.27;;;21.17;;
434;SDS011;204;48.942;9.256;2022-08-19T08:09:51;23.33;;;22.13;;
434;SDS011;204;48.942;9.256;2022-08-19T08:12:22;22.00;;;20.90;;
434;SDS011;204;48.942;9.256;2022-08-19T08:14:54;20.93;;;19.90;;
434;SDS011;204;48.942;9.256;2022-08-19T08:17:22;20.27;;;19.27;;
434;SDS011;204;48.942;9.256;2022-08-19T08:19:50;21.07;;;20.00;;
434;SDS011;204;48.942;9.256;2022-08-19T08:22:17;21.57;;;20.47;;
434;SDS011;204;48.942;9.256;2022-08-19T08:25:04;22.43;;;21.33;;
434;SDS011;204;48.942;9.256;2022-08-19T08:27:34;22.90;;;20.40;;
434;SDS011;204;48.942;9.256;2022-08-19T08:30:02;20.47;;;19.43;;
434;SDS011;204;48.942;9.256;2022-08-19T08:32:29;21.27;;;20.17;;
434;SDS011;204;48.942;9.256;2022-08-19T08:34:55;18.70;;;17.80;;
434;SDS011;204;48.942;9.256;2022-08-19T08:37:20;19.53;;;18.53;;
434;SDS011;204;48.942;9.256;2022-08-19T08:39:47;20.10;;;19.10;;
434;SDS011;204;48.942;9.256;2022-08-19T08:42:18;19.03;;;18.03;;
434;SDS011;204;48.942;9.256;2022-08-19T08:47:32;20.10;;;18.63;;
434;SDS011;204;48.942;9.256;2022-08-19T08:50:04;21.03;;;19.97;;
434;SDS011;204;48.942;9.256;2022-08-19T08:52:34;19.43;;;18.43;;
434;SDS011;204;48.942;9.256;2022-08-19T08:55:08;19.13;;;18.13;;
434;SDS011;204;48.942;9.256;2022-08-19T09:00:06;18.73;;;17.83;;
434;SDS011;204;48.942;9.256;2022-08-19T09:02:35;20.53;;;17.97;;
434;SDS011;204;48.942;9.256;2022-08-19T09:05:01;19.73;;;18.73;;
434;SDS011;204;48.942;9.256;2022-08-19T09:13:12;18.83;;;17.90;;
434;SDS011;204;48.942;9.256;2022-08-19T09:16:03;18.13;;;17.23;;
434;SDS011;204;48.942;9.256;2022-08-19T09:18:38;18.57;;;17.03;;
434;SDS011;204;48.942;9.256;2022-08-19T09:21:12;18.20;;;17.30;;
434;SDS011;204;48.942;9.256;2022-08-19T09:23:38;18.73;;;17.83;;
434;SDS011;204;48.942;9.256;2022-08-19T09:26:08;18.23;;;17.33;;
434;SDS011;204;48.942;9.256;2022-08-19T09:28:42;17.53;;;16.63;;
434;SDS011;204;48.942;9.256;2022-08-19T09:31:13;18.77;;;17.30;;
434;SDS011;204;48.942;9.256;2022-08-19T09:33:41;19.10;;;16.80;;
434;SDS011;204;48.942;9.256;2022-08-19T09:36:09;17.60;;;16.67;;
434;SDS011;204;48.942;9.256;2022-08-19T09:38:37;17.20;;;16.30;;
434;SDS011;204;48.942;9.256;2022-08-19T09:41:07;16.47;;;15.57;;
434;SDS011;204;48.942;9.256;2022-08-19T09:43:37;15.40;;;14.60;;
434;SDS011;204;48.942;9.256;2022-08-19T09:46:03;17.27;;;15.60;;
434;SDS011;204;48.942;9.256;2022-08-19T09:48:34;16.50;;;14.80;;
434;SDS011;204;48.942;9.256;2022-08-19T09:53:37;14.67;;;13.93;;
434;SDS011;204;48.942;9.256;2022-08-19T09:56:04;14.43;;;13.70;;
434;SDS011;204;48.942;9.256;2022-08-19T09:58:31;14.80;;;14.00;;
434;SDS011;204;48.942;9.256;2022-08-19T10:00:58;17.17;;;15.50;;
434;SDS011;204;48.942;9.256;2022-08-19T10:03:25;16.07;;;15.27;;
434;SDS011;204;48.942;9.256;2022-08-19T10:05:52;17.70;;;16.43;;
434;SDS011;204;48.942;9.256;2022-08-19T10:08:20;16.57;;;15.77;;
434;SDS011;204;48.942;9.256;2022-08-19T10:10:48;19.57;;;13.47;;
434;SDS011;204;48.942;9.256;2022-08-19T10:13:17;13.97;;;13.27;;
434;SDS011;204;48.942;9.256;2022-08-19T10:15:50;15.83;;;15.03;;
434;SDS011;204;48.942;9.256;2022-08-19T10:18:17;12.70;;;12.00;;
434;SDS011;204;48.942;9.256;2022-08-19T10:20:48;12.43;;;11.87;;
434;SDS011;204;48.942;9.256;2022-08-19T10:23:15;13.43;;;12.73;;
434;SDS011;204;48.942;9.256;2022-08-19T10:25:41;12.77;;;12.07;;
434;SDS011;204;48.942;9.256;2022-08-19T10:28:07;13.67;;;12.97;;
434;SDS011;204;48.942;9.256;2022-08-19T10:30:37;14.13;;;13.43;;
434;SDS011;204;48.942;9.256;2022-08-19T10:33:06;13.40;;;12.77;;
434;SDS011;204;48.942;9.256;2022-08-19T10:35:32;13.33;;;12.63;;
434;SDS011;204;48.942;9.256;2022-08-19T10:37:58;13.40;;;12.70;;
434;SDS011;204;48.942;9.256;2022-08-19T10:40:24;16.23;;;14.30;;
434;SDS011;204;48.942;9.256;2022-08-19T10:42:51;14.50;;;12.40;;
434;SDS011;204;48.942;9.256;2022-08-19T10:45:17;13.20;;;12.50;;
434;SDS011;204;48.942;9.256;2022-08-19T10:47:43;11.20;;;10.60;;
434;SDS011;204;48.942;9.256;2022-08-19T10:50:09;11.70;;;10.60;;
434;SDS011;204;48.942;9.256;2022-08-19T10:52:53;13.43;;;11.40;;
434;SDS011;204;48.942;9.256;2022-08-19T10:55:20;10.47;;;9.93;;
434;SDS011;204;48.942;9.256;2022-08-19T10:58:13;12.07;;;8.83;;
434;SDS011;204;48.942;9.256;2022-08-19T11:00:40;11.00;;;9.40;;
434;SDS011;204;48.942;9.256;2022-08-19T11:03:07;9.87;;;9.37;;
434;SDS011;204;48.942;9.256;2022-08-19T11:05:33;9.70;;;9.20;;
434;SDS011;204;48.942;9.256;2022-08-19T11:07:59;9.13;;;8.70;;
434;SDS011;204;48.942;9.256;2022-08-19T11:10:24;10.50;;;9.07;;
434;SDS011;204;48.942;9.256;2022-08-19T11:12:50;9.63;;;9.13;;
434;SDS011;204;48.942;9.256;2022-08-19T11:15:19;11.80;;;8.37;;
434;SDS011;204;48.942;9.256;2022-08-19T11:17:45;10.80;;;8.73;;
434;SDS011;204;48.942;9.256;2022-08-19T11:20:12;8.37;;;7.93;;
434;SDS011;204;48.942;9.256;2022-08-19T11:22:39;7.80;;;7.40;;
434;SDS011;204;48.942;9.256;2022-08-19T11:25:05;7.90;;;7.13;;
434;SDS011;204;48.942;9.256;2022-08-19T11:27:31;8.20;;;7.80;;
434;SDS011;204;48.942;9.256;2022-08-19T11:29:58;7.00;;;6.60;;
434;SDS011;204;48.942;9.256;2022-08-19T11:32:24;7.43;;;7.03;;
434;SDS011;204;48.942;9.256;2022-08-19T11:34:50;11.17;;;8.80;;
434;SDS011;204;48.942;9.256;2022-08-19T11:37:15;9.40;;;8.47;;
434;SDS011;204;48.942;9.256;2022-08-19T11:39:41;8.80;;;8.30;;
434;SDS011;204;48.942;9.256;2022-08-19T11:42:06;9.00;;;8.50;;
434;SDS011;204;48.942;9.256;2022-08-19T11:44:52;8.77;;;8.27;;
434;SDS011;204;48.942;9.256;2022-08-19T11:47:18;8.37;;;7.93;;
434;SDS011;204;48.942;9.256;2022-08-19T11:49:45;11.57;;;10.97;;
434;SDS011;204;48.942;9.256;2022-08-19T11:52:11;11.40;;;10.80;;
434;SDS011;204;48.942;9.256;2022-08-19T11:54:37;9.47;;;8.97;;
434;SDS011;204;48.942;9.256;2022-08-19T11:57:03;8.87;;;7.90;;
434;SDS011;204;48.942;9.256;2022-08-19T11:59:29;7.83;;;7.43;;
434;SDS011;204;48.942;9.256;2022-08-19T12:01:55;8.70;;;7.83;;
434;SDS011;204;48.942;9.256;2022-08-19T12:04:21;8.73;;;8.23;;
434;SDS011;204;48.942;9.256;2022-08-19T12:06:47;7.73;;;7.30;;
434;SDS011;204;48.942;9.256;2022-08-19T12:09:14;7.77;;;7.33;;
434;SDS011;204;48.942;9.256;2022-08-19T12:11:41;7.70;;;7.30;;
434;SDS011;204;48.942;9.256;2022-08-19T12:14:08;9.83;;;9.33;;
434;SDS011;204;48.942;9.256;2022-08-19T12:16:36;9.30;;;8.80;;
434;SDS011;204;48.942;9.256;2022-08-19T12:19:03;7.93;;;7.53;;
434;SDS011;204;48.942;9.256;2022-08-19T12:21:29;8.83;;;8.33;;
434;SDS011;204;48.942;9.256;2022-08-19T12:23:57;9.47;;;8.97;;
434;SDS011;204;48.942;9.256;2022-08-19T12:26:25;9.70;;;9.20;;
434;SDS011;204;48.942;9.256;2022-08-19T12:28:52;8.90;;;7.83;;
434;SDS011;204;48.942;9.256;2022-08-19T12:31:18;9.47;;;8.97;;
434;SDS011;204;48.942;9.256;2022-08-19T12:33:44;9.70;;;9.20;;
434;SDS011;204;48.942;9.256;2022-08-19T12:36:12;14.20;;;9.33;;
434;SDS011;204;48.942;9.256;2022-08-19T12:38:40;12.20;;;11.60;;
434;SDS011;204;48.942;9.256;2022-08-19T12:41:06;10.90;;;10.30;;
434;SDS011;204;48.942;9.256;2022-08-19T12:43:35;10.67;;;10.07;;
434;SDS011;204;48.942;9.256;2022-08-19T12:46:02;9.73;;;9.23;;
434;SDS011;204;48.942;9.256;2022-08-19T12:48:29;12.17;;;9.50;;
434;SDS011;204;48.942;9.256;2022-08-19T12:50:55;10.73;;;9.67;;
434;SDS011;204;48.942;9.256;2022-08-19T12:53:21;10.67;;;10.07;;
434;SDS011;204;48.942;9.256;2022-08-19T12:55:47;11.33;;;10.73;;
434;SDS011;204;48.942;9.256;2022-08-19T12:58:12;12.20;;;11.60;;
434;SDS011;204;48.942;9.256;2022-08-19T13:00:38;10.90;;;10.30;;
434;SDS011;204;48.942;9.256;2022-08-19T13:03:04;12.83;;;12.13;;
434;SDS011;204;48.942;9.256;2022-08-19T13:05:30;12.70;;;12.00;;
434;SDS011;204;48.942;9.256;2022-08-19T13:07:59;12.63;;;11.97;;
434;SDS011;204;48.942;9.256;2022-08-19T13:10:30;13.37;;;11.30;;
434;SDS011;204;48.942;9.256;2022-08-19T13:12:59;13.87;;;13.17;;
434;SDS011;204;48.942;9.256;2022-08-19T13:15:26;13.13;;;12.23;;
434;SDS011;204;48.942;9.256;2022-08-19T13:17:53;14.37;;;12.40;;
434;SDS011;204;48.942;9.256;2022-08-19T13:20:20;12.63;;;11.97;;
434;SDS011;204;48.942;9.256;2022-08-19T13:22:47;12.23;;;11.63;;
434;SDS011;204;48.942;9.256;2022-08-19T13:25:13;12.10;;;11.50;;
434;SDS011;204;48.942;9.256;2022-08-19T13:27:41;13.43;;;12.73;;
434;SDS011;204;48.942;9.256;2022-08-19T13:30:07;16.07;;;12.40;;
434;SDS011;204;48.942;9.256;2022-08-19T13:32:53;11.80;;;11.20;;
434;SDS011;204;48.942;9.256;2022-08-19T13:35:40;13.07;;;12.37;;
434;SDS011;204;48.942;9.256;2022-08-19T13:38:10;13.40;;;12.70;;
434;SDS011;204;48.942;9.256;2022-08-19T13:40:36;13.13;;;12.33;;
434;SDS011;204;48.942;9.256;2022-08-19T13:43:03;14.00;;;13.13;;
434;SDS011;204;48.942;9.256;2022-08-19T13:45:29;13.50;;;12.80;;
434;SDS011;204;48.942;9.256;2022-08-19T13:48:00;14.30;;;13.60;;
434;SDS011;204;48.942;9.256;2022-08-19T13:50:31;16.43;;;14.13;;
434;SDS011;204;48.942;9.256;2022-08-19T13:52:57;15.60;;;14.80;;
434;SDS011;204;48.942;9.256;2022-08-19T13:55:24;15.80;;;14.33;;
434;SDS011;204;48.942;9.256;2022-08-19T13:57:52;15.70;;;14.70;;
434;SDS011;204;48.942;9.256;2022-08-19T14:00:19;14.93;;;14.00;;
434;SDS011;204;48.942;9.256;2022-08-19T14:02:46;13.00;;;12.30;;
434;SDS011;204;48.942;9.256;2022-08-19T14:05:16;13.37;;;12.67;;
434;SDS011;204;48.942;9.256;2022-08-19T14:07:42;13.73;;;12.87;;
434;SDS011;204;48.942;9.256;2022-08-19T14:10:09;14.93;;;13.90;;
434;SDS011;204;48.942;9.256;2022-08-19T14:12:37;13.90;;;13.20;;
434;SDS011;204;48.942;9.256;2022-08-19T14:15:04;14.17;;;13.47;;
434;SDS011;204;48.942;9.256;2022-08-19T14:17:32;17.50;;;16.60;;
434;SDS011;204;48.942;9.256;2022-08-19T14:20:00;18.20;;;17.30;;
434;SDS011;204;48.942;9.256;2022-08-19T14:22:29;17.70;;;16.80;;
434;SDS011;204;48.942;9.256;2022-08-19T14:24:56;18.47;;;17.57;;
434;SDS011;204;48.942;9.256;2022-08-19T14:27:22;19.80;;;18.80;;
434;SDS011;204;48.942;9.256;2022-08-19T14:29:50;20.40;;;19.40;;
434;SDS011;204;48.942;9.256;2022-08-19T14:32:20;21.43;;;20.33;;
434;SDS011;204;48.942;9.256;2022-08-19T14:34:46;23.73;;;21.93;;
434;SDS011;204;48.942;9.256;2022-08-19T14:37:12;22.87;;;21.77;;
434;SDS011;204;48.942;9.256;2022-08-19T14:39:41;23.07;;;21.93;;
434;SDS011;204;48.942;9.256;2022-08-19T14:42:07;23.40;;;22.20;;
434;SDS011;204;48.942;9.256;2022-08-19T14:44:34;21.93;;;20.73;;
434;SDS011;204;48.942;9.256;2022-08-19T14:47:00;26.77;;;24.80;;
434;SDS011;204;48.942;9.256;2022-08-19T14:49:26;26.00;;;24.70;;
434;SDS011;204;48.942;9.256;2022-08-19T14:51:51;26.33;;;23.50;;
434;SDS011;204;48.942;9.256;2022-08-19T14:54:17;24.23;;;23.03;;
434;SDS011;204;48.942;9.256;2022-08-19T14:56:43;26.00;;;24.70;;
434;SDS011;204;48.942;9.256;2022-08-19T14:59:09;24.87;;;23.67;;
434;SDS011;204;48.942;9.256;2022-08-19T15:01:34;26.10;;;24.80;;
434;SDS011;204;48.942;9.256;2022-08-19T15:04:00;24.10;;;22.90;;
434;SDS011;204;48.942;9.256;2022-08-19T15:06:26;26.57;;;25.27;;
434;SDS011;204;48.942;9.256;2022-08-19T15:08:52;29.67;;;28.17;;
434;SDS011;204;48.942;9.256;2022-08-19T15:11:19;28.47;;;27.07;;
434;SDS011;204;48.942;9.256;2022-08-19T15:13:47;27.63;;;26.23;;
434;SDS011;204;48.942;9.256;2022-08-19T15:16:15;28.27;;;26.87;;
434;SDS011;204;48.942;9.256;2022-08-19T15:18:41;28.87;;;27.47;;
434;SDS011;204;48.942;9.256;2022-08-19T15:21:11;29.33;;;27.90;;
434;SDS011;204;48.942;9.256;2022-08-19T15:23:37;30.60;;;28.40;;
434;SDS011;204;48.942;9.256;2022-08-19T15:26:03;28.87;;;27.47;;
434;SDS011;204;48.942;9.256;2022-08-19T15:28:30;30.87;;;29.37;;
434;SDS011;204;48.942;9.256;2022-08-19T15:30:57;31.53;;;27.37;;
434;SDS011;204;48.942;9.256;2022-08-19T15:33:23;29.43;;;27.97;;
434;SDS011;204;48.942;9.256;2022-08-19T15:35:48;29.73;;;28.10;;
434;SDS011;204;48.942;9.256;2022-08-19T15:38:15;29.13;;;27.73;;